Terminal Aerodrome Forecast
Issued by NWS Grand Forks, ND

Home | Current Version | Previous Version | Graphics & Text | Print | Product List | Glossary On
Versions: 1 2 3 4 5 6 7 8 9 10 11 12 13 14 15 16
000
FTUS43 KFGF 261400 AAA
TAFFAR
TAF AMD
KFAR 261457Z 2615/2712 36008KT P6SM BKN025
      TEMPO 2615/2618 SCT025
     FM270000 36009KT P6SM SKC
     FM271000 15005KT P6SM BKN200=

USA.gov is the U.S. government's official web portal to all federal, state and local government web resources and services.